Time;durP1;ratioP1;P1;durP2;ratioP2;P2;SDS_P1;SDS_P2;PMS_P1;PMS_P2;Temp;Humidity;BMP_temperature;BMP_pressure;BME280_temperature;BME280_humidity;BME280_pressure;Samples;Min_cycle;Max_cycle;Signal;HPM_P1;HPM_P2
2024/01/04 00:01:33;;;;;;;1.07;0.40;;;;;;;9.03;100.00;95619.34;5084942;28;20206;-58
2024/01/04 00:04:01;;;;;;;1.40;0.50;;;;;;;9.10;100.00;95610.66;5085076;28;20694;-57
2024/01/04 00:06:28;;;;;;;2.73;0.70;;;;;;;9.17;100.00;95621.38;5084982;28;20202;-59
2024/01/04 00:08:55;;;;;;;0.27;0.27;;;;;;;9.16;100.00;95631.09;5084574;28;20197;-57
2024/01/04 00:11:21;;;;;;;0.60;0.33;;;;;;;9.15;100.00;95633.88;5085460;28;20241;-58
2024/01/04 00:13:50;;;;;;;1.37;0.30;;;;;;;9.26;100.00;95644.16;5084709;28;20608;-58
2024/01/04 00:16:17;;;;;;;1.30;0.50;;;;;;;9.19;100.00;95640.50;5084586;28;20206;-57
2024/01/04 00:18:46;;;;;;;0.20;0.20;;;;;;;9.05;100.00;95641.09;5083923;28;20229;-57
2024/01/04 00:21:14;;;;;;;0.40;0.40;;;;;;;8.90;100.00;95652.25;5083684;28;20955;-58
2024/01/04 00:23:41;;;;;;;1.37;0.93;;;;;;;8.85;100.00;95651.91;5084133;28;20234;-57
2024/01/04 00:26:08;;;;;;;0.50;0.30;;;;;;;8.66;100.00;95657.38;5084326;28;20226;-57
2024/01/04 00:28:34;;;;;;;1.30;0.50;;;;;;;8.58;100.00;95656.47;5083710;28;20213;-56
2024/01/04 00:31:01;;;;;;;1.60;0.60;;;;;;;8.53;100.00;95651.69;5084394;28;20198;-56
2024/01/04 00:33:28;;;;;;;1.03;0.30;;;;;;;8.53;100.00;95658.78;5083297;28;20300;-58
2024/01/04 00:35:55;;;;;;;0.43;0.30;;;;;;;8.39;100.00;95652.25;5084214;28;20201;-58
2024/01/04 00:38:23;;;;;;;0.20;0.20;;;;;;;8.34;100.00;95650.06;5083055;28;20300;-57
2024/01/04 00:40:49;;;;;;;0.70;0.20;;;;;;;8.26;100.00;95657.88;5084200;28;20198;-57
2024/01/04 00:43:16;;;;;;;0.70;0.30;;;;;;;8.18;100.00;95639.41;5082655;28;20212;-58
2024/01/04 00:45:42;;;;;;;0.40;0.10;;;;;;;8.00;100.00;95642.06;5085418;28;20331;-57
2024/01/04 00:48:09;;;;;;;1.13;0.30;;;;;;;8.03;100.00;95654.06;5097146;28;20255;-58
2024/01/04 00:50:36;;;;;;;0.50;0.30;;;;;;;7.99;100.00;95650.91;5100498;28;20222;-57
2024/01/04 00:53:02;;;;;;;0.37;0.20;;;;;;;7.88;100.00;95640.63;5100957;28;20241;-58
2024/01/04 00:55:30;;;;;;;0.60;0.40;;;;;;;7.87;100.00;95646.84;5097346;28;20205;-59
2024/01/04 00:58:02;;;;;;;0.20;0.20;;;;;;;7.85;100.00;95651.44;5085037;28;20194;-58
2024/01/04 01:00:29;;;;;;;0.40;0.20;;;;;;;7.87;100.00;95646.03;5082977;28;20202;-58
2024/01/04 01:02:55;;;;;;;1.50;0.50;;;;;;;7.86;100.00;95650.47;5082625;28;20568;-58
2024/01/04 01:05:22;;;;;;;1.03;0.40;;;;;;;7.87;100.00;95657.38;5082973;28;20694;-56
2024/01/04 01:07:51;;;;;;;0.67;0.30;;;;;;;7.87;100.00;95661.81;5083432;28;20208;-56
2024/01/04 01:10:18;;;;;;;1.00;0.40;;;;;;;7.93;100.00;95663.88;5083299;28;20600;-58
2024/01/04 01:12:46;;;;;;;1.23;0.37;;;;;;;7.93;100.00;95675.22;5083006;28;20202;-57
2024/01/04 01:15:14;;;;;;;1.13;0.40;;;;;;;7.99;100.00;95677.25;5094993;28;20207;-57
2024/01/04 01:17:44;;;;;;;0.83;0.40;;;;;;;7.94;100.00;95676.03;5097106;28;20221;-56
2024/01/04 01:20:12;;;;;;;2.07;0.50;;;;;;;7.93;100.00;95693.66;5097706;28;20230;-57
2024/01/04 01:22:39;;;;;;;0.87;0.60;;;;;;;8.02;100.00;95689.28;5097442;28;20325;-58
2024/01/04 01:25:06;;;;;;;3.23;0.70;;;;;;;7.96;100.00;95705.69;5089416;28;20288;-58
2024/01/04 01:27:33;;;;;;;1.90;0.50;;;;;;;8.06;100.00;95697.69;5082866;28;20206;-58
2024/01/04 01:30:01;;;;;;;0.83;0.30;;;;;;;8.18;100.00;95707.03;5081572;28;20285;-58
2024/01/04 01:32:28;;;;;;;0.50;0.40;;;;;;;8.17;100.00;95708.84;5082946;28;20199;-59
2024/01/04 01:34:57;;;;;;;0.53;0.53;;;;;;;8.23;100.00;95702.13;5082533;28;20635;-58
2024/01/04 01:37:24;;;;;;;1.27;0.67;;;;;;;8.20;100.00;95716.44;5082285;28;20210;-58
2024/01/04 01:39:50;;;;;;;0.43;0.30;;;;;;;8.28;100.00;95720.94;5082842;28;20281;-58
2024/01/04 01:42:20;;;;;;;0.30;0.27;;;;;;;8.20;100.00;95698.00;5082656;28;20213;-58
2024/01/04 01:44:47;;;;;;;1.13;0.40;;;;;;;8.20;100.00;95702.44;5081645;28;20256;-58
2024/01/04 01:47:16;;;;;;;1.53;0.50;;;;;;;8.04;100.00;95695.22;5082915;28;20202;-58
2024/01/04 01:49:42;;;;;;;0.97;0.53;;;;;;;8.08;100.00;95707.09;5082537;28;20259;-57
2024/01/04 01:52:09;;;;;;;1.53;0.40;;;;;;;8.04;100.00;95715.47;5082616;28;20242;-57
2024/01/04 01:54:36;;;;;;;0.50;0.30;;;;;;;8.09;100.00;95716.66;5082553;28;20206;-57
2024/01/04 01:57:04;;;;;;;0.67;0.47;;;;;;;8.10;100.00;95715.69;5082257;28;20202;-57
2024/01/04 01:59:30;;;;;;;0.80;0.30;;;;;;;8.09;100.00;95721.09;5081692;28;20208;-58
2024/01/04 02:01:59;;;;;;;0.40;0.23;;;;;;;8.01;100.00;95724.47;5082433;28;20202;-58
2024/01/04 02:04:27;;;;;;;2.90;0.27;;;;;;;8.09;100.00;95731.63;5083421;28;20206;-55
2024/01/04 02:06:56;;;;;;;1.90;0.33;;;;;;;8.04;100.00;95731.25;5080755;28;20316;-58
2024/01/04 02:09:23;;;;;;;0.40;0.10;;;;;;;7.99;100.00;95740.44;5082591;28;20514;-58
2024/01/04 02:11:49;;;;;;;0.67;0.30;;;;;;;8.02;100.00;95732.22;5082748;28;20194;-58
2024/01/04 02:14:17;;;;;;;0.20;0.20;;;;;;;8.04;100.00;95737.34;5081345;28;20204;-58
2024/01/04 02:16:45;;;;;;;0.37;0.30;;;;;;;8.08;100.00;95743.16;5082343;28;20206;-58
2024/01/04 02:19:12;;;;;;;0.93;0.40;;;;;;;8.11;100.00;95742.84;5082579;28;20292;-58
2024/01/04 02:21:41;;;;;;;0.77;0.30;;;;;;;8.09;100.00;95750.06;5082155;28;20236;-58
2024/01/04 02:24:10;;;;;;;0.67;0.33;;;;;;;8.02;100.00;95740.13;5081297;28;20266;-58
2024/01/04 02:26:36;;;;;;;1.10;0.57;;;;;;;8.00;100.00;95734.19;5081581;28;20680;-58
2024/01/04 02:29:03;;;;;;;0.63;0.30;;;;;;;7.87;100.00;95741.59;5080438;28;20639;-58
2024/01/04 02:31:30;;;;;;;0.87;0.20;;;;;;;7.85;100.00;95735.69;5082326;28;20210;-58
2024/01/04 02:33:56;;;;;;;1.10;0.40;;;;;;;7.87;100.00;95731.06;5081520;28;20210;-58
2024/01/04 02:36:23;;;;;;;1.77;0.53;;;;;;;7.76;100.00;95738.38;5082144;28;20299;-58
2024/01/04 02:38:50;;;;;;;1.83;0.50;;;;;;;7.87;100.00;95752.13;5082075;28;20197;-59
2024/01/04 02:41:19;;;;;;;3.00;0.93;;;;;;;7.85;100.00;95758.53;5082627;28;20293;-58
2024/01/04 02:43:45;;;;;;;0.90;0.60;;;;;;;7.81;100.00;95752.72;5081980;28;20201;-58
2024/01/04 02:46:12;;;;;;;2.10;0.60;;;;;;;7.82;100.00;95759.66;5081649;28;20787;-58
2024/01/04 02:48:39;;;;;;;1.90;0.70;;;;;;;7.75;100.00;95753.34;5080967;28;20529;-59
2024/01/04 02:51:06;;;;;;;3.03;0.60;;;;;;;7.75;100.00;95753.34;5081844;28;20204;-58
2024/01/04 02:53:35;;;;;;;2.93;0.80;;;;;;;7.82;100.00;95759.66;5081656;28;20218;-57
2024/01/04 02:56:02;;;;;;;2.03;0.70;;;;;;;7.82;100.00;95754.41;5081908;28;20202;-58
2024/01/04 02:58:33;;;;;;;1.37;0.90;;;;;;;7.76;100.00;95744.44;5081505;28;20202;-58
2024/01/04 03:01:00;;;;;;;2.13;0.87;;;;;;;7.82;100.00;95746.50;5095757;28;20182;-58
2024/01/04 03:03:27;;;;;;;1.53;0.47;;;;;;;7.78;100.00;95745.13;5096817;28;20226;-59
2024/01/04 03:05:54;;;;;;;1.00;0.60;;;;;;;7.73;100.00;95750.00;5084254;28;20237;-57
2024/01/04 03:08:21;;;;;;;1.30;0.77;;;;;;;7.76;100.00;95749.69;5082250;28;20301;-57
2024/01/04 03:10:47;;;;;;;2.03;0.90;;;;;;;7.83;100.00;95748.13;5086029;28;20202;-57
2024/01/04 03:13:14;;;;;;;2.50;0.80;;;;;;;7.72;100.00;95739.66;5086460;28;20227;-59
2024/01/04 03:15:42;;;;;;;1.53;0.50;;;;;;;7.77;100.00;95745.28;5085134;28;20620;-58
2024/01/04 03:18:10;;;;;;;1.80;1.00;;;;;;;7.79;100.00;95741.53;5083294;28;20224;-56
2024/01/04 03:20:38;;;;;;;1.33;0.60;;;;;;;7.88;100.00;95732.75;5085884;28;20209;-58
2024/01/04 03:23:07;;;;;;;3.30;0.67;;;;;;;8.00;100.00;95730.72;5086213;28;20227;-58
2024/01/04 03:25:34;;;;;;;1.87;0.80;;;;;;;7.94;100.00;95737.41;5087502;28;20226;-58
2024/01/04 03:28:00;;;;;;;2.33;0.70;;;;;;;7.99;100.00;95737.78;5087146;28;20630;-59
2024/01/04 03:30:27;;;;;;;3.27;0.73;;;;;;;7.97;100.00;95750.25;5085460;28;20541;-58
2024/01/04 03:32:59;;;;;;;1.00;0.77;;;;;;;7.96;100.00;95748.63;5086830;28;20198;-58
2024/01/04 03:35:26;;;;;;;3.40;0.97;;;;;;;7.99;100.00;95761.50;5086660;28;20213;-58
2024/01/04 03:37:52;;;;;;;2.20;0.97;;;;;;;8.06;100.00;95756.44;5085329;28;20212;-59
2024/01/04 03:40:20;;;;;;;4.10;0.90;;;;;;;8.09;100.00;95776.38;5084426;28;20284;-58
2024/01/04 03:42:46;;;;;;;4.27;0.93;;;;;;;8.13;100.00;95781.22;5086640;28;20211;-59
2024/01/04 03:45:13;;;;;;;1.80;0.87;;;;;;;8.08;100.00;95787.91;5096417;28;20198;-57
2024/01/04 03:47:40;;;;;;;3.40;1.30;;;;;;;8.13;100.00;95786.47;5106846;28;20205;-58
2024/01/04 03:50:09;;;;;;;2.53;0.80;;;;;;;7.98;100.00;95793.22;5105293;28;20230;-59
2024/01/04 03:52:38;;;;;;;3.43;1.20;;;;;;;7.93;100.00;95806.84;5106300;28;20212;-59
2024/01/04 03:55:07;;;;;;;3.30;1.10;;;;;;;7.92;100.00;95797.28;5107519;28;20198;-59
2024/01/04 03:57:34;;;;;;;3.17;0.80;;;;;;;7.97;100.00;95805.53;5105201;28;20217;-56
2024/01/04 04:00:03;;;;;;;5.73;1.03;;;;;;;7.85;100.00;95804.09;5103905;28;20210;-58
2024/01/04 04:02:29;;;;;;;4.00;1.07;;;;;;;7.79;100.00;95823.13;5098089;28;20225;-59
2024/01/04 04:04:58;;;;;;;3.10;0.93;;;;;;;7.87;100.00;95817.94;5102827;28;20181;-59
2024/01/04 04:07:27;;;;;;;3.80;1.30;;;;;;;7.84;100.00;95831.41;5102860;28;20735;-59
2024/01/04 04:09:53;;;;;;;3.90;1.00;;;;;;;7.87;100.00;95810.03;5100796;28;20233;-59
2024/01/04 04:12:20;;;;;;;2.33;1.20;;;;;;;7.77;100.00;95829.50;5100378;28;20229;-59
2024/01/04 04:14:49;;;;;;;3.37;1.10;;;;;;;7.85;100.00;95829.59;5097811;28;20258;-59
2024/01/04 04:17:20;;;;;;;2.53;0.80;;;;;;;7.81;100.00;95831.69;5096376;28;20202;-58
2024/01/04 04:19:47;;;;;;;3.13;1.57;;;;;;;7.76;100.00;95833.91;5083800;28;20206;-58
2024/01/04 04:22:13;;;;;;;1.07;0.60;;;;;;;7.77;100.00;95846.09;5084921;28;20198;-58
2024/01/04 04:24:42;;;;;;;1.13;0.83;;;;;;;7.83;100.00;95840.25;5085015;28;21143;-58
2024/01/04 04:27:11;;;;;;;1.73;0.80;;;;;;;7.73;100.00;95841.28;5086252;28;20221;-60
2024/01/04 04:29:39;;;;;;;1.03;0.50;;;;;;;7.72;100.00;95840.44;5086158;28;20237;-59
2024/01/04 04:32:08;;;;;;;1.80;0.90;;;;;;;7.64;100.00;95839.53;5087254;28;20206;-58
2024/01/04 04:34:35;;;;;;;2.20;0.93;;;;;;;7.65;100.00;95835.94;5084583;28;20216;-60
2024/01/04 04:37:02;;;;;;;2.23;1.53;;;;;;;7.75;100.00;95844.59;5084806;28;20309;-58
2024/01/04 04:39:29;;;;;;;4.40;1.00;;;;;;;7.69;100.00;95843.38;5084251;28;21451;-59
2024/01/04 04:41:58;;;;;;;2.87;1.00;;;;;;;7.70;100.00;95845.03;5084216;28;20301;-58
2024/01/04 04:44:25;;;;;;;3.47;0.77;;;;;;;7.79;100.00;95848.59;5083152;28;20642;-58
2024/01/04 04:46:56;;;;;;;1.63;0.93;;;;;;;7.72;100.00;95842.28;5084855;28;20225;-58
2024/01/04 04:49:23;;;;;;;2.77;0.83;;;;;;;7.86;100.00;95854.94;5085560;28;20198;-59
2024/01/04 04:51:49;;;;;;;3.40;1.10;;;;;;;7.89;100.00;95860.75;5083640;28;20218;-59
2024/01/04 04:54:18;;;;;;;2.47;0.80;;;;;;;7.85;100.00;95859.38;5083602;28;20206;-59
2024/01/04 04:56:46;;;;;;;3.97;1.07;;;;;;;7.76;100.00;95854.97;5084728;28;20241;-58
2024/01/04 04:59:15;;;;;;;2.00;0.70;;;;;;;7.76;100.00;95860.22;5082260;28;20220;-57
2024/01/04 05:01:43;;;;;;;2.77;1.03;;;;;;;7.77;100.00;95867.16;5084236;28;20328;-58
2024/01/04 05:04:10;;;;;;;2.57;1.00;;;;;;;7.85;100.00;95875.19;5082317;28;20234;-58
2024/01/04 05:06:36;;;;;;;2.33;1.10;;;;;;;7.92;100.00;95864.88;5084462;28;20222;-58
2024/01/04 05:09:07;;;;;;;2.60;0.93;;;;;;;7.92;100.00;95860.47;5085347;28;20221;-58
2024/01/04 05:11:33;;;;;;;1.60;0.90;;;;;;;7.88;100.00;95864.34;5101188;28;20202;-58
2024/01/04 05:14:02;;;;;;;1.30;0.70;;;;;;;7.88;100.00;95863.53;5098965;28;20293;-58
2024/01/04 05:16:31;;;;;;;0.93;0.70;;;;;;;7.88;100.00;95868.78;5096036;28;20194;-58
2024/01/04 05:18:58;;;;;;;1.90;0.67;;;;;;;7.84;100.00;95864.78;5083776;28;20210;-58
2024/01/04 05:21:24;;;;;;;2.80;0.90;;;;;;;7.81;100.00;95873.81;5082957;28;20207;-59
2024/01/04 05:23:51;;;;;;;1.33;0.67;;;;;;;7.78;100.00;95858.31;5083251;28;20317;-58
2024/01/04 05:26:21;;;;;;;5.70;1.20;;;;;;;7.86;100.00;95866.31;5083440;28;20237;-58
2024/01/04 05:28:48;;;;;;;2.73;0.70;;;;;;;7.72;100.00;95876.47;5082234;28;20205;-58
2024/01/04 05:31:17;;;;;;;2.80;0.93;;;;;;;7.68;100.00;95872.47;5083104;28;20552;-57
2024/01/04 05:33:45;;;;;;;1.80;0.80;;;;;;;7.75;100.00;95869.13;5082995;28;20580;-58
2024/01/04 05:36:12;;;;;;;2.67;0.70;;;;;;;7.70;100.00;95895.03;5081924;28;20202;-58
2024/01/04 05:38:39;;;;;;;1.90;0.60;;;;;;;7.69;100.00;95888.09;5083666;28;20531;-57
2024/01/04 05:41:06;;;;;;;2.00;0.60;;;;;;;7.81;100.00;95899.28;5081661;28;21012;-59
2024/01/04 05:43:35;;;;;;;1.07;0.60;;;;;;;7.82;100.00;95898.31;5082300;28;20214;-57
2024/01/04 05:46:04;;;;;;;1.87;0.93;;;;;;;7.79;100.00;95904.72;5083371;28;20278;-58
2024/01/04 05:48:30;;;;;;;0.70;0.60;;;;;;;7.73;100.00;95915.78;5083159;28;20312;-58
2024/01/04 05:50:59;;;;;;;2.20;0.80;;;;;;;7.79;100.00;95909.16;5082066;28;20194;-59
2024/01/04 05:53:25;;;;;;;2.27;0.80;;;;;;;7.78;100.00;95915.38;5082742;28;20210;-58
2024/01/04 05:55:52;;;;;;;2.30;0.83;;;;;;;7.74;100.00;95914.81;5082360;28;20213;-58
2024/01/04 05:58:18;;;;;;;2.30;0.60;;;;;;;7.76;100.00;95928.66;5082902;28;20193;-59
2024/01/04 06:00:48;;;;;;;2.57;0.87;;;;;;;7.82;100.00;95933.38;5082764;28;20206;-59
2024/01/04 06:03:14;;;;;;;2.53;0.90;;;;;;;7.72;100.00;95927.28;5081903;28;20764;-59
2024/01/04 06:05:41;;;;;;;2.03;1.10;;;;;;;7.77;100.00;95935.59;5082191;28;20592;-58
2024/01/04 06:08:09;;;;;;;1.30;0.50;;;;;;;7.94;100.00;95934.84;5082323;28;20236;-60
2024/01/04 06:10:36;;;;;;;1.90;0.80;;;;;;;7.89;100.00;95945.00;5081730;28;20206;-59
2024/01/04 06:13:03;;;;;;;2.03;1.00;;;;;;;8.03;100.00;95956.84;5082520;28;20198;-58
2024/01/04 06:15:29;;;;;;;3.90;1.10;;;;;;;8.07;100.00;95958.22;5081460;28;20229;-59
2024/01/04 06:17:59;;;;;;;2.63;0.70;;;;;;;8.00;100.00;95951.88;5083210;28;20216;-58
2024/01/04 06:20:25;;;;;;;1.50;0.63;;;;;;;8.08;100.00;95956.44;5082344;28;20213;-59
2024/01/04 06:22:54;;;;;;;4.90;1.50;;;;;;;8.03;100.00;95964.75;5082715;28;20208;-57
2024/01/04 06:25:23;;;;;;;3.53;1.60;;;;;;;8.00;100.00;95973.78;5081783;28;20627;-59
2024/01/04 06:27:50;;;;;;;1.53;0.90;;;;;;;7.85;100.00;95971.72;5081519;28;20595;-59
2024/01/04 06:30:16;;;;;;;1.67;1.00;;;;;;;8.00;100.00;95980.84;5081794;28;20214;-58
2024/01/04 06:32:42;;;;;;;3.03;0.70;;;;;;;8.01;100.00;95980.69;5081166;28;20201;-58
2024/01/04 06:35:09;;;;;;;1.37;0.73;;;;;;;8.01;100.00;95985.09;5081888;28;20199;-59
2024/01/04 06:37:35;;;;;;;2.70;0.90;;;;;;;8.08;100.00;95993.28;5083072;28;20194;-57
2024/01/04 06:40:05;;;;;;;2.03;0.73;;;;;;;8.07;100.00;95983.72;5081518;28;20199;-59
2024/01/04 06:42:36;;;;;;;3.80;1.27;;;;;;;8.05;100.00;95996.19;5082212;28;20205;-57
2024/01/04 06:45:03;;;;;;;2.73;0.93;;;;;;;8.05;100.00;95975.94;5084521;28;20202;-58
2024/01/04 06:47:30;;;;;;;2.60;1.03;;;;;;;8.10;100.00;95988.69;5093037;28;20242;-59
2024/01/04 06:49:56;;;;;;;2.10;0.93;;;;;;;8.11;100.00;95993.84;5097077;28;20198;-59
2024/01/04 06:52:23;;;;;;;2.37;1.50;;;;;;;8.00;100.00;96000.09;5099132;28;20222;-59
2024/01/04 06:54:50;;;;;;;2.40;1.00;;;;;;;8.07;100.00;95994.25;5092757;28;20223;-58
2024/01/04 06:57:16;;;;;;;3.10;1.30;;;;;;;8.06;100.00;95997.84;5094573;28;20413;-58
2024/01/04 06:59:46;;;;;;;2.27;0.97;;;;;;;8.09;100.00;95984.41;5089921;28;20206;-58
2024/01/04 07:02:14;;;;;;;4.70;1.60;;;;;;;8.02;100.00;95990.25;5086103;28;20276;-59
2024/01/04 07:04:40;;;;;;;3.27;1.70;;;;;;;8.02;100.00;95997.31;5086657;28;20554;-59
2024/01/04 07:07:07;;;;;;;2.90;1.13;;;;;;;7.98;100.00;96002.03;5086169;28;20219;-57
2024/01/04 07:09:36;;;;;;;2.27;1.17;;;;;;;7.96;100.00;95997.88;5085651;28;20206;-58
2024/01/04 07:12:03;;;;;;;1.17;1.00;;;;;;;7.98;100.00;96014.38;5084435;28;20205;-59
2024/01/04 07:14:30;;;;;;;3.47;1.10;;;;;;;7.98;100.00;96011.72;5084877;28;20263;-59
2024/01/04 07:16:58;;;;;;;4.73;1.47;;;;;;;7.94;100.00;96015.63;5085829;28;20586;-57
2024/01/04 07:19:25;;;;;;;2.97;1.40;;;;;;;7.91;100.00;96018.53;5088845;28;20298;-58
2024/01/04 07:21:51;;;;;;;3.73;1.03;;;;;;;7.92;100.00;96028.09;5089281;28;20237;-57
2024/01/04 07:24:18;;;;;;;2.93;1.33;;;;;;;8.01;100.00;96033.34;5087837;28;20199;-58
2024/01/04 07:26:44;;;;;;;3.73;0.90;;;;;;;7.98;100.00;96033.63;5085760;28;20221;-58
2024/01/04 07:29:11;;;;;;;3.23;1.07;;;;;;;7.93;100.00;96035.88;5084324;28;20210;-59
2024/01/04 07:31:38;;;;;;;2.17;0.77;;;;;;;8.04;100.00;96041.94;5084670;28;20294;-58
2024/01/04 07:34:06;;;;;;;2.57;1.27;;;;;;;8.09;100.00;96042.31;5084727;28;20204;-58
2024/01/04 07:36:35;;;;;;;2.87;1.00;;;;;;;8.12;100.00;96044.66;5084791;28;20301;-58
2024/01/04 07:39:02;;;;;;;3.87;1.40;;;;;;;8.17;100.00;96058.25;5084137;28;20202;-58
2024/01/04 07:41:31;;;;;;;4.17;1.00;;;;;;;8.16;100.00;96053.94;5085062;28;20202;-56
2024/01/04 07:43:58;;;;;;;1.63;0.87;;;;;;;8.18;100.00;96063.41;5087288;28;20208;-59
2024/01/04 07:46:25;;;;;;;4.77;1.20;;;;;;;8.10;100.00;96054.53;5084947;28;20201;-57
2024/01/04 07:48:56;;;;;;;3.67;1.00;;;;;;;8.10;100.00;96054.53;5085277;28;20213;-58
2024/01/04 07:51:24;;;;;;;4.27;0.83;;;;;;;8.14;100.00;96053.28;5084436;28;20783;-57
2024/01/04 07:53:51;;;;;;;1.50;1.00;;;;;;;8.24;100.00;96056.72;5085692;28;20216;-57
2024/01/04 07:56:17;;;;;;;4.30;1.50;;;;;;;8.16;100.00;96053.94;5086754;28;20321;-57
2024/01/04 07:58:44;;;;;;;2.77;1.00;;;;;;;8.09;100.00;96050.22;5086041;28;20281;-57
2024/01/04 08:01:10;;;;;;;1.80;0.80;;;;;;;8.08;100.00;96049.41;5085938;28;20296;-57
2024/01/04 08:03:37;;;;;;;2.27;0.93;;;;;;;8.09;100.00;96050.22;5084740;28;20265;-57
2024/01/04 08:06:05;;;;;;;2.93;0.80;;;;;;;8.06;100.00;96055.78;5084250;28;20548;-58
2024/01/04 08:08:33;;;;;;;1.37;0.77;;;;;;;8.13;100.00;96056.88;5085088;28;20304;-58
2024/01/04 08:11:01;;;;;;;1.27;0.60;;;;;;;8.18;100.00;96065.19;5085567;28;20208;-57
2024/01/04 08:13:27;;;;;;;2.93;1.00;;;;;;;8.21;100.00;96062.28;5084619;28;20203;-58
2024/01/04 08:15:54;;;;;;;2.37;0.83;;;;;;;8.15;100.00;96065.47;5085248;28;20202;-57
2024/01/04 08:18:21;;;;;;;0.77;0.67;;;;;;;8.25;100.00;96075.03;5084359;28;20282;-58
2024/01/04 08:20:47;;;;;;;1.17;0.70;;;;;;;8.25;100.00;96077.66;5083598;28;20539;-58
2024/01/04 08:23:15;;;;;;;1.97;0.70;;;;;;;8.30;100.00;96079.88;5087027;28;20212;-57
2024/01/04 08:25:43;;;;;;;3.17;0.97;;;;;;;8.31;100.00;96077.09;5091797;28;20204;-57
2024/01/04 08:28:10;;;;;;;2.20;0.70;;;;;;;8.29;100.00;96068.50;5102797;28;20321;-57
2024/01/04 08:30:37;;;;;;;0.63;0.50;;;;;;;8.23;100.00;96068.22;5101535;28;20240;-58
2024/01/04 08:33:05;;;;;;;1.67;0.77;;;;;;;8.23;100.00;96076.13;5101043;28;20198;-58
2024/01/04 08:35:32;;;;;;;3.17;0.90;;;;;;;8.28;100.00;96077.41;5097914;28;20225;-58
2024/01/04 08:38:01;;;;;;;3.40;0.80;;;;;;;8.32;100.00;96072.66;5100898;28;20265;-58
2024/01/04 08:40:29;;;;;;;3.33;0.70;;;;;;;8.28;100.00;96084.44;5096611;28;20297;-58
2024/01/04 08:42:59;;;;;;;2.67;0.97;;;;;;;8.46;100.00;96085.38;5096264;28;20203;-57
2024/01/04 08:45:28;;;;;;;3.60;0.97;;;;;;;8.53;100.00;96099.66;5094389;28;20273;-58
2024/01/04 08:47:54;;;;;;;4.50;1.03;;;;;;;8.40;100.00;96093.84;5093990;28;20310;-57
2024/01/04 08:50:21;;;;;;;1.23;0.90;;;;;;;8.42;100.00;96094.53;5094911;28;20289;-58
2024/01/04 08:52:48;;;;;;;1.80;0.93;;;;;;;8.43;100.00;96091.75;5096570;28;21118;-57
2024/01/04 08:55:18;;;;;;;1.57;0.90;;;;;;;8.51;100.00;96101.56;5099702;28;20224;-57
2024/01/04 08:57:44;;;;;;;2.47;0.87;;;;;;;8.53;100.00;96107.56;5100600;28;20218;-57
2024/01/04 09:00:14;;;;;;;2.80;1.10;;;;;;;8.61;100.00;96126.09;5097963;28;20233;-56
2024/01/04 09:02:42;;;;;;;1.23;0.80;;;;;;;8.64;100.00;96114.44;5089354;28;20236;-57
2024/01/04 09:05:09;;;;;;;1.43;0.80;;;;;;;8.62;100.00;96111.94;5082814;28;20194;-57
2024/01/04 09:07:36;;;;;;;2.50;0.70;;;;;;;8.71;100.00;96111.09;5082317;28;20236;-57
2024/01/04 09:10:02;;;;;;;1.87;0.90;;;;;;;8.60;100.00;96113.91;5083861;28;20293;-58
2024/01/04 09:12:29;;;;;;;1.43;0.90;;;;;;;8.66;100.00;96110.69;5083357;28;20189;-58
2024/01/04 09:14:56;;;;;;;1.70;0.70;;;;;;;8.64;100.00;96110.00;5083136;28;20202;-58
2024/01/04 09:17:25;;;;;;;0.90;0.63;;;;;;;8.61;100.00;96110.28;5083624;28;20208;-58
2024/01/04 09:19:51;;;;;;;1.97;1.10;;;;;;;8.56;100.00;96101.16;5085850;28;20202;-58
2024/01/04 09:22:18;;;;;;;2.47;0.97;;;;;;;8.59;100.00;96111.41;5085671;28;20198;-57
2024/01/04 09:24:45;;;;;;;2.10;0.90;;;;;;;8.62;100.00;96119.84;5084360;28;20216;-58
2024/01/04 09:27:12;;;;;;;1.80;1.00;;;;;;;8.65;100.00;96124.84;5086254;28;20204;-57
2024/01/04 09:29:39;;;;;;;1.77;0.83;;;;;;;8.79;100.00;96139.34;5090931;28;20207;-56
2024/01/04 09:32:07;;;;;;;3.07;1.20;;;;;;;8.55;100.00;96131.94;5086291;28;20198;-58
2024/01/04 09:34:35;;;;;;;4.63;1.10;;;;;;;8.53;100.00;96136.53;5086542;28;20206;-58
2024/01/04 09:37:01;;;;;;;1.33;0.90;;;;;;;8.51;100.00;96146.38;5086868;28;20198;-57
2024/01/04 09:39:28;;;;;;;2.93;0.97;;;;;;;8.57;100.00;96135.28;5087251;28;20217;-57
2024/01/04 09:41:57;;;;;;;1.57;0.83;;;;;;;8.41;100.00;96127.97;5091043;28;20199;-58
2024/01/04 09:44:25;;;;;;;6.33;1.03;;;;;;;8.49;100.00;96132.53;5087243;28;20221;-57
2024/01/04 09:46:54;;;;;;;4.33;1.23;;;;;;;8.38;100.00;96127.41;5083658;28;20209;-57
2024/01/04 09:49:20;;;;;;;3.60;1.07;;;;;;;8.50;100.00;96128.94;5082913;28;20319;-58
2024/01/04 09:51:48;;;;;;;1.63;1.40;;;;;;;8.54;100.00;96119.72;5082662;28;20216;-57
2024/01/04 09:54:18;;;;;;;2.10;1.07;;;;;;;8.49;100.00;96120.19;5083137;28;20232;-57
2024/01/04 09:56:46;;;;;;;2.00;0.90;;;;;;;8.61;100.00;96120.03;5083556;28;20292;-56
2024/01/04 09:59:13;;;;;;;4.43;1.53;;;;;;;8.70;100.00;96130.50;5082169;28;20709;-57
2024/01/04 10:01:40;;;;;;;4.57;1.37;;;;;;;8.73;100.00;96129.38;5083199;28;20195;-58
2024/01/04 10:04:11;;;;;;;2.93;1.03;;;;;;;8.87;100.00;96127.13;5082570;28;20805;-56
2024/01/04 10:06:41;;;;;;;4.57;1.00;;;;;;;9.01;100.00;96131.09;5083534;28;20207;-58
2024/01/04 10:09:15;;;;;;;3.87;1.00;;;;;;;9.12;100.00;96135.34;5083288;28;20670;-57
2024/01/04 10:11:46;;;;;;;2.40;1.23;;;;;;;9.12;100.00;96127.41;5083649;28;20191;-57
2024/01/04 10:14:13;;;;;;;3.13;1.17;;;;;;;9.14;100.00;96138.66;5082747;28;20213;-58
2024/01/04 10:16:40;;;;;;;3.93;1.40;;;;;;;9.12;100.00;96148.53;5081990;28;20654;-58
2024/01/04 10:19:06;;;;;;;3.53;1.40;;;;;;;9.15;100.00;96150.84;5084979;28;20200;-59
2024/01/04 10:21:33;;;;;;;4.97;1.40;;;;;;;9.20;100.00;96153.91;5085952;28;20217;-57
2024/01/04 10:24:00;;;;;;;3.27;1.37;;;;;;;9.24;100.00;96156.13;5085902;28;20206;-57
2024/01/04 10:26:29;;;;;;;3.43;1.20;;;;;;;9.23;100.00;96153.59;5086123;28;20663;-58
2024/01/04 10:28:55;;;;;;;3.37;1.10;;;;;;;9.22;100.00;96158.03;5085333;28;20225;-57
2024/01/04 10:31:22;;;;;;;3.37;1.17;;;;;;;9.26;100.00;96155.94;5086293;28;20209;-58
2024/01/04 10:33:56;;;;;;;4.00;1.10;;;;;;;9.37;100.00;96161.03;5085934;28;21382;-58
2024/01/04 10:36:25;;;;;;;4.00;1.17;;;;;;;9.44;100.00;96149.75;5086289;28;20201;-58
2024/01/04 10:38:51;;;;;;;4.60;1.10;;;;;;;9.43;100.00;96156.00;5086033;28;20205;-57
2024/01/04 10:41:18;;;;;;;2.47;1.17;;;;;;;9.53;100.00;96155.91;5086886;28;20205;-57
2024/01/04 10:43:46;;;;;;;3.63;1.00;;;;;;;9.59;100.00;96144.78;5086281;28;20548;-60
2024/01/04 10:46:13;;;;;;;3.10;1.00;;;;;;;9.94;98.14;96128.97;5086798;28;20202;-59
2024/01/04 10:48:39;;;;;;;3.43;1.20;;;;;;;10.41;95.64;96141.94;5086789;28;20278;-57
2024/01/04 10:51:09;;;;;;;3.83;1.00;;;;;;;10.63;92.16;96136.09;5085864;28;20297;-59
2024/01/04 10:53:37;;;;;;;3.37;1.30;;;;;;;10.97;89.61;96131.69;5086082;28;20627;-58
2024/01/04 10:56:04;;;;;;;1.60;1.00;;;;;;;11.13;89.26;96132.75;5085731;28;20208;-59
2024/01/04 10:58:35;;;;;;;3.70;1.23;;;;;;;11.34;87.19;96127.84;5085900;28;20203;-58
2024/01/04 11:01:04;;;;;;;2.17;1.00;;;;;;;11.19;87.67;96132.13;5085717;28;20209;-59
2024/01/04 11:03:31;;;;;;;1.80;0.83;;;;;;;10.95;87.93;96125.72;5086168;28;20320;-58
2024/01/04 11:05:59;;;;;;;2.47;1.30;;;;;;;10.68;89.17;96125.91;5085654;28;20201;-58
2024/01/04 11:08:29;;;;;;;3.13;0.90;;;;;;;10.52;90.99;96130.28;5086231;28;20223;-59
2024/01/04 11:10:55;;;;;;;2.63;1.00;;;;;;;10.40;92.15;96125.22;5085542;28;20239;-58
2024/01/04 11:13:22;;;;;;;2.40;1.27;;;;;;;10.28;91.04;96128.25;5086009;28;20216;-59
2024/01/04 11:15:51;;;;;;;2.80;1.00;;;;;;;10.15;93.06;96120.75;5084518;28;20195;-59
2024/01/04 11:18:30;;;;;;;2.07;0.70;;;;;;;10.02;92.03;96114.16;5086482;28;20208;-59
2024/01/04 11:21:08;;;;;;;1.97;0.80;;;;;;;10.18;92.63;96106.38;5085150;28;20225;-58
2024/01/04 11:23:48;;;;;;;1.43;0.70;;;;;;;10.20;92.37;96088.59;5084694;28;20313;-58
2024/01/04 11:26:22;;;;;;;2.90;0.97;;;;;;;10.45;92.37;96101.00;5085049;28;20297;-59
2024/01/04 11:28:49;;;;;;;2.73;0.80;;;;;;;10.57;90.68;96088.31;5084532;28;20314;-58
2024/01/04 11:31:16;;;;;;;3.07;1.00;;;;;;;10.64;91.11;96079.59;5085971;28;20297;-58
2024/01/04 11:33:47;;;;;;;4.47;1.00;;;;;;;10.81;90.59;96076.06;5094735;28;20198;-58
2024/01/04 11:36:18;;;;;;;1.97;0.90;;;;;;;11.02;90.11;96074.84;5096539;28;20513;-59